Terminal Aerodrome Forecast
Issued by NWS

Home | Current Version | Previous Version | Text Only | Print | Product List | Glossary On
Versions: 1 2 3 4 5 6 7 8 9 10 11 12
000
FTUS44 KBMX 300500
TAFTOI
TAF
KTOI 300523Z 3006/3106 24007KT P6SM BKN040
     FM300800 32012G20KT P6SM OVC040
     FM301400 35013KT P6SM SCT250
     FM310000 35005KT P6SM SCT250=

USA.gov is the U.S. government's official web portal to all federal, state and local government web resources and services.